sensor_id;sensor_type;location;lat;lon;timestamp;P1;durP1;ratioP1;P2;durP2;ratioP2
1615;SDS011;801;47.982;7.810;2023-12-20T00:00:59;0.15;;;0.10;;
1615;SDS011;801;47.982;7.810;2023-12-20T00:03:26;1.00;;;0.25;;
1615;SDS011;801;47.982;7.810;2023-12-20T00:05:52;0.10;;;0.10;;
1615;SDS011;801;47.982;7.810;2023-12-20T00:08:20;0.17;;;0.17;;
1615;SDS011;801;47.982;7.810;2023-12-20T00:10:47;0.57;;;0.20;;
1615;SDS011;801;47.982;7.810;2023-12-20T00:13:13;0.17;;;0.17;;
1615;SDS011;801;47.982;7.810;2023-12-20T00:15:40;0.20;;;0.20;;
1615;SDS011;801;47.982;7.810;2023-12-20T00:18:06;0.30;;;0.25;;
1615;SDS011;801;47.982;7.810;2023-12-20T00:20:33;0.10;;;0.10;;
1615;SDS011;801;47.982;7.810;2023-12-20T00:22:59;0.40;;;0.20;;
1615;SDS011;801;47.982;7.810;2023-12-20T00:25:27;0.40;;;0.40;;
1615;SDS011;801;47.982;7.810;2023-12-20T00:27:54;0.63;;;0.55;;
1615;SDS011;801;47.982;7.810;2023-12-20T00:30:20;0.28;;;0.28;;
1615;SDS011;801;47.982;7.810;2023-12-20T00:32:47;0.10;;;0.10;;
1615;SDS011;801;47.982;7.810;2023-12-20T00:35:13;0.25;;;0.25;;
1615;SDS011;801;47.982;7.810;2023-12-20T00:37:40;1.20;;;0.52;;
1615;SDS011;801;47.982;7.810;2023-12-20T00:40:07;0.10;;;0.10;;
1615;SDS011;801;47.982;7.810;2023-12-20T00:42:35;0.13;;;0.13;;
1615;SDS011;801;47.982;7.810;2023-12-20T00:45:02;0.10;;;0.10;;
1615;SDS011;801;47.982;7.810;2023-12-20T00:47:29;0.20;;;0.20;;
1615;SDS011;801;47.982;7.810;2023-12-20T00:49:56;0.10;;;0.10;;
1615;SDS011;801;47.982;7.810;2023-12-20T00:52:23;0.10;;;0.10;;
1615;SDS011;801;47.982;7.810;2023-12-20T00:54:50;0.20;;;0.20;;
1615;SDS011;801;47.982;7.810;2023-12-20T00:57:17;0.10;;;0.10;;
1615;SDS011;801;47.982;7.810;2023-12-20T00:59:45;0.22;;;0.22;;
1615;SDS011;801;47.982;7.810;2023-12-20T01:02:11;0.10;;;0.10;;
1615;SDS011;801;47.982;7.810;2023-12-20T01:04:38;0.10;;;0.10;;
1615;SDS011;801;47.982;7.810;2023-12-20T01:07:04;0.20;;;0.20;;
1615;SDS011;801;47.982;7.810;2023-12-20T01:09:31;0.28;;;0.22;;
1615;SDS011;801;47.982;7.810;2023-12-20T01:11:57;0.43;;;0.38;;
1615;SDS011;801;47.982;7.810;2023-12-20T01:14:24;0.28;;;0.28;;
1615;SDS011;801;47.982;7.810;2023-12-20T01:16:52;0.10;;;0.10;;
1615;SDS011;801;47.982;7.810;2023-12-20T01:19:18;0.40;;;0.40;;
1615;SDS011;801;47.982;7.810;2023-12-20T01:21:45;0.10;;;0.10;;
1615;SDS011;801;47.982;7.810;2023-12-20T01:24:11;0.10;;;0.10;;
1615;SDS011;801;47.982;7.810;2023-12-20T01:26:38;0.10;;;0.10;;
1615;SDS011;801;47.982;7.810;2023-12-20T01:29:04;0.13;;;0.13;;
1615;SDS011;801;47.982;7.810;2023-12-20T01:31:31;0.10;;;0.10;;
1615;SDS011;801;47.982;7.810;2023-12-20T01:34:00;0.20;;;0.20;;
1615;SDS011;801;47.982;7.810;2023-12-20T01:36:26;1.15;;;0.43;;
1615;SDS011;801;47.982;7.810;2023-12-20T01:38:53;0.38;;;0.20;;
1615;SDS011;801;47.982;7.810;2023-12-20T01:41:19;0.30;;;0.28;;
1615;SDS011;801;47.982;7.810;2023-12-20T01:43:46;0.10;;;0.10;;
1615;SDS011;801;47.982;7.810;2023-12-20T01:46:12;0.10;;;0.10;;
1615;SDS011;801;47.982;7.810;2023-12-20T01:48:39;0.45;;;0.32;;
1615;SDS011;801;47.982;7.810;2023-12-20T01:51:08;0.28;;;0.28;;
1615;SDS011;801;47.982;7.810;2023-12-20T01:53:34;0.20;;;0.20;;
1615;SDS011;801;47.982;7.810;2023-12-20T01:56:01;0.10;;;0.10;;
1615;SDS011;801;47.982;7.810;2023-12-20T01:58:28;0.20;;;0.20;;
1615;SDS011;801;47.982;7.810;2023-12-20T02:00:56;0.50;;;0.50;;
1615;SDS011;801;47.982;7.810;2023-12-20T02:03:23;0.20;;;0.20;;
1615;SDS011;801;47.982;7.810;2023-12-20T02:05:50;0.10;;;0.10;;
1615;SDS011;801;47.982;7.810;2023-12-20T02:08:18;0.13;;;0.13;;
1615;SDS011;801;47.982;7.810;2023-12-20T02:10:45;0.55;;;0.55;;
1615;SDS011;801;47.982;7.810;2023-12-20T02:13:12;0.20;;;0.20;;
1615;SDS011;801;47.982;7.810;2023-12-20T02:15:38;0.10;;;0.10;;
1615;SDS011;801;47.982;7.810;2023-12-20T02:18:07;0.10;;;0.10;;
1615;SDS011;801;47.982;7.810;2023-12-20T02:20:33;0.20;;;0.20;;
1615;SDS011;801;47.982;7.810;2023-12-20T02:23:01;0.20;;;0.20;;
1615;SDS011;801;47.982;7.810;2023-12-20T02:25:28;0.20;;;0.20;;
1615;SDS011;801;47.982;7.810;2023-12-20T02:27:54;0.20;;;0.20;;
1615;SDS011;801;47.982;7.810;2023-12-20T02:30:21;0.47;;;0.40;;
1615;SDS011;801;47.982;7.810;2023-12-20T02:32:48;0.20;;;0.20;;
1615;SDS011;801;47.982;7.810;2023-12-20T02:35:15;0.10;;;0.10;;
1615;SDS011;801;47.982;7.810;2023-12-20T02:37:42;0.10;;;0.10;;
1615;SDS011;801;47.982;7.810;2023-12-20T02:40:11;0.55;;;0.55;;
1615;SDS011;801;47.982;7.810;2023-12-20T02:42:38;0.10;;;0.10;;
1615;SDS011;801;47.982;7.810;2023-12-20T02:45:05;0.13;;;0.13;;
1615;SDS011;801;47.982;7.810;2023-12-20T02:47:32;0.20;;;0.20;;
1615;SDS011;801;47.982;7.810;2023-12-20T02:49:59;0.20;;;0.20;;
1615;SDS011;801;47.982;7.810;2023-12-20T02:52:25;0.20;;;0.20;;
1615;SDS011;801;47.982;7.810;2023-12-20T02:54:54;0.20;;;0.20;;
1615;SDS011;801;47.982;7.810;2023-12-20T02:57:22;0.10;;;0.10;;
1615;SDS011;801;47.982;7.810;2023-12-20T02:59:49;0.30;;;0.30;;
1615;SDS011;801;47.982;7.810;2023-12-20T03:02:15;0.15;;;0.15;;
1615;SDS011;801;47.982;7.810;2023-12-20T03:04:43;0.10;;;0.10;;
1615;SDS011;801;47.982;7.810;2023-12-20T03:07:11;0.17;;;0.17;;
1615;SDS011;801;47.982;7.810;2023-12-20T03:09:38;0.10;;;0.10;;
1615;SDS011;801;47.982;7.810;2023-12-20T03:12:06;0.20;;;0.20;;
1615;SDS011;801;47.982;7.810;2023-12-20T03:14:36;0.10;;;0.10;;
1615;SDS011;801;47.982;7.810;2023-12-20T03:17:03;0.10;;;0.10;;
1615;SDS011;801;47.982;7.810;2023-12-20T03:19:30;0.73;;;0.63;;
1615;SDS011;801;47.982;7.810;2023-12-20T03:21:56;0.90;;;0.63;;
1615;SDS011;801;47.982;7.810;2023-12-20T03:24:26;0.20;;;0.20;;
1615;SDS011;801;47.982;7.810;2023-12-20T03:27:00;0.45;;;0.40;;
1615;SDS011;801;47.982;7.810;2023-12-20T03:29:27;0.25;;;0.25;;
1615;SDS011;801;47.982;7.810;2023-12-20T03:31:55;0.10;;;0.10;;
1615;SDS011;801;47.982;7.810;2023-12-20T03:34:21;0.10;;;0.10;;
1615;SDS011;801;47.982;7.810;2023-12-20T03:36:48;0.25;;;0.25;;
1615;SDS011;801;47.982;7.810;2023-12-20T03:39:14;0.10;;;0.10;;
1615;SDS011;801;47.982;7.810;2023-12-20T03:41:40;0.30;;;0.30;;
1615;SDS011;801;47.982;7.810;2023-12-20T03:44:07;0.15;;;0.15;;
1615;SDS011;801;47.982;7.810;2023-12-20T03:46:33;0.10;;;0.10;;
1615;SDS011;801;47.982;7.810;2023-12-20T03:49:01;0.10;;;0.10;;
1615;SDS011;801;47.982;7.810;2023-12-20T03:51:28;0.20;;;0.20;;
1615;SDS011;801;47.982;7.810;2023-12-20T03:53:55;0.10;;;0.10;;
1615;SDS011;801;47.982;7.810;2023-12-20T03:56:21;0.20;;;0.20;;
1615;SDS011;801;47.982;7.810;2023-12-20T03:58:48;0.10;;;0.10;;
1615;SDS011;801;47.982;7.810;2023-12-20T04:01:14;0.20;;;0.20;;
1615;SDS011;801;47.982;7.810;2023-12-20T04:03:41;0.10;;;0.10;;
1615;SDS011;801;47.982;7.810;2023-12-20T04:06:08;0.25;;;0.25;;
1615;SDS011;801;47.982;7.810;2023-12-20T04:08:35;0.10;;;0.10;;
1615;SDS011;801;47.982;7.810;2023-12-20T04:11:02;0.50;;;0.30;;
1615;SDS011;801;47.982;7.810;2023-12-20T04:13:28;0.63;;;0.63;;
1615;SDS011;801;47.982;7.810;2023-12-20T04:15:55;0.20;;;0.20;;
1615;SDS011;801;47.982;7.810;2023-12-20T04:18:21;0.10;;;0.10;;
1615;SDS011;801;47.982;7.810;2023-12-20T04:20:48;0.20;;;0.20;;
1615;SDS011;801;47.982;7.810;2023-12-20T04:23:16;0.10;;;0.10;;
1615;SDS011;801;47.982;7.810;2023-12-20T04:25:42;0.17;;;0.17;;
1615;SDS011;801;47.982;7.810;2023-12-20T04:28:09;0.10;;;0.10;;
1615;SDS011;801;47.982;7.810;2023-12-20T04:30:36;0.10;;;0.10;;
1615;SDS011;801;47.982;7.810;2023-12-20T04:33:02;0.20;;;0.20;;
1615;SDS011;801;47.982;7.810;2023-12-20T04:35:29;0.10;;;0.10;;
1615;SDS011;801;47.982;7.810;2023-12-20T04:37:55;0.10;;;0.10;;
1615;SDS011;801;47.982;7.810;2023-12-20T04:40:23;0.77;;;0.20;;
1615;SDS011;801;47.982;7.810;2023-12-20T04:42:50;0.10;;;0.10;;
1615;SDS011;801;47.982;7.810;2023-12-20T04:45:16;0.10;;;0.10;;
1615;SDS011;801;47.982;7.810;2023-12-20T04:47:44;1.27;;;0.68;;
1615;SDS011;801;47.982;7.810;2023-12-20T04:50:12;1.08;;;0.70;;
1615;SDS011;801;47.982;7.810;2023-12-20T04:52:39;0.10;;;0.10;;
1615;SDS011;801;47.982;7.810;2023-12-20T04:55:06;0.30;;;0.30;;
1615;SDS011;801;47.982;7.810;2023-12-20T04:57:35;0.10;;;0.10;;
1615;SDS011;801;47.982;7.810;2023-12-20T05:00:01;0.30;;;0.30;;
1615;SDS011;801;47.982;7.810;2023-12-20T05:02:28;0.10;;;0.10;;
1615;SDS011;801;47.982;7.810;2023-12-20T05:04:54;0.10;;;0.10;;
1615;SDS011;801;47.982;7.810;2023-12-20T05:07:21;0.10;;;0.10;;
1615;SDS011;801;47.982;7.810;2023-12-20T05:09:47;0.20;;;0.20;;
1615;SDS011;801;47.982;7.810;2023-12-20T05:12:14;0.10;;;0.10;;
1615;SDS011;801;47.982;7.810;2023-12-20T05:14:41;0.22;;;0.15;;
1615;SDS011;801;47.982;7.810;2023-12-20T05:17:08;0.20;;;0.20;;
1615;SDS011;801;47.982;7.810;2023-12-20T05:19:34;0.10;;;0.10;;
1615;SDS011;801;47.982;7.810;2023-12-20T05:22:01;0.20;;;0.20;;
1615;SDS011;801;47.982;7.810;2023-12-20T05:24:27;0.10;;;0.10;;
1615;SDS011;801;47.982;7.810;2023-12-20T05:26:54;0.10;;;0.10;;
1615;SDS011;801;47.982;7.810;2023-12-20T05:29:20;0.10;;;0.10;;
1615;SDS011;801;47.982;7.810;2023-12-20T05:31:48;0.15;;;0.15;;
1615;SDS011;801;47.982;7.810;2023-12-20T05:34:15;0.15;;;0.15;;
1615;SDS011;801;47.982;7.810;2023-12-20T05:36:41;0.13;;;0.13;;
1615;SDS011;801;47.982;7.810;2023-12-20T05:39:07;0.52;;;0.32;;
1615;SDS011;801;47.982;7.810;2023-12-20T05:41:34;0.10;;;0.10;;
1615;SDS011;801;47.982;7.810;2023-12-20T05:44:00;0.40;;;0.25;;
1615;SDS011;801;47.982;7.810;2023-12-20T05:46:27;0.10;;;0.10;;
1615;SDS011;801;47.982;7.810;2023-12-20T05:48:55;0.10;;;0.10;;
1615;SDS011;801;47.982;7.810;2023-12-20T05:51:22;0.10;;;0.10;;
1615;SDS011;801;47.982;7.810;2023-12-20T05:53:48;0.10;;;0.10;;
1615;SDS011;801;47.982;7.810;2023-12-20T05:56:15;0.20;;;0.20;;
1615;SDS011;801;47.982;7.810;2023-12-20T05:58:42;0.20;;;0.20;;
1615;SDS011;801;47.982;7.810;2023-12-20T06:01:08;0.20;;;0.20;;
1615;SDS011;801;47.982;7.810;2023-12-20T06:03:35;0.10;;;0.10;;
1615;SDS011;801;47.982;7.810;2023-12-20T06:06:05;0.10;;;0.10;;
1615;SDS011;801;47.982;7.810;2023-12-20T06:08:33;0.10;;;0.10;;
1615;SDS011;801;47.982;7.810;2023-12-20T06:10:59;0.10;;;0.10;;
1615;SDS011;801;47.982;7.810;2023-12-20T06:13:26;0.10;;;0.10;;
1615;SDS011;801;47.982;7.810;2023-12-20T06:15:53;0.20;;;0.20;;
1615;SDS011;801;47.982;7.810;2023-12-20T06:18:20;0.10;;;0.10;;
1615;SDS011;801;47.982;7.810;2023-12-20T06:20:47;0.10;;;0.10;;
1615;SDS011;801;47.982;7.810;2023-12-20T06:23:14;0.10;;;0.10;;
1615;SDS011;801;47.982;7.810;2023-12-20T06:25:41;0.10;;;0.10;;
1615;SDS011;801;47.982;7.810;2023-12-20T06:28:08;0.43;;;0.43;;
1615;SDS011;801;47.982;7.810;2023-12-20T06:30:35;0.20;;;0.10;;
1615;SDS011;801;47.982;7.810;2023-12-20T06:33:02;0.52;;;0.52;;
1615;SDS011;801;47.982;7.810;2023-12-20T06:35:28;0.10;;;0.10;;
1615;SDS011;801;47.982;7.810;2023-12-20T06:37:55;0.10;;;0.10;;
1615;SDS011;801;47.982;7.810;2023-12-20T06:40:25;0.10;;;0.10;;
1615;SDS011;801;47.982;7.810;2023-12-20T06:42:52;0.10;;;0.10;;
1615;SDS011;801;47.982;7.810;2023-12-20T06:45:18;0.10;;;0.10;;
1615;SDS011;801;47.982;7.810;2023-12-20T06:47:45;0.10;;;0.10;;
1615;SDS011;801;47.982;7.810;2023-12-20T06:50:11;0.17;;;0.17;;
1615;SDS011;801;47.982;7.810;2023-12-20T06:52:38;0.10;;;0.10;;
1615;SDS011;801;47.982;7.810;2023-12-20T06:55:05;0.20;;;0.20;;
1615;SDS011;801;47.982;7.810;2023-12-20T06:57:33;0.17;;;0.17;;
1615;SDS011;801;47.982;7.810;2023-12-20T07:00:01;0.10;;;0.10;;
1615;SDS011;801;47.982;7.810;2023-12-20T07:02:28;0.10;;;0.10;;
1615;SDS011;801;47.982;7.810;2023-12-20T07:04:55;0.10;;;0.10;;
1615;SDS011;801;47.982;7.810;2023-12-20T07:07:22;0.10;;;0.10;;
1615;SDS011;801;47.982;7.810;2023-12-20T07:09:49;0.43;;;0.30;;
1615;SDS011;801;47.982;7.810;2023-12-20T07:12:16;0.20;;;0.20;;
1615;SDS011;801;47.982;7.810;2023-12-20T07:14:45;1.15;;;0.90;;
1615;SDS011;801;47.982;7.810;2023-12-20T07:17:12;1.65;;;0.82;;
1615;SDS011;801;47.982;7.810;2023-12-20T07:19:40;1.20;;;0.65;;
1615;SDS011;801;47.982;7.810;2023-12-20T07:22:07;0.28;;;0.28;;
1615;SDS011;801;47.982;7.810;2023-12-20T07:24:34;0.15;;;0.15;;
1615;SDS011;801;47.982;7.810;2023-12-20T07:27:01;0.30;;;0.20;;
1615;SDS011;801;47.982;7.810;2023-12-20T07:29:28;0.93;;;0.40;;
1615;SDS011;801;47.982;7.810;2023-12-20T07:31:56;0.17;;;0.17;;
1615;SDS011;801;47.982;7.810;2023-12-20T07:34:22;0.10;;;0.10;;
1615;SDS011;801;47.982;7.810;2023-12-20T07:36:49;0.20;;;0.20;;
1615;SDS011;801;47.982;7.810;2023-12-20T07:39:15;0.10;;;0.10;;
1615;SDS011;801;47.982;7.810;2023-12-20T07:41:42;0.10;;;0.10;;
1615;SDS011;801;47.982;7.810;2023-12-20T07:44:09;0.10;;;0.10;;
1615;SDS011;801;47.982;7.810;2023-12-20T07:46:35;0.15;;;0.15;;
1615;SDS011;801;47.982;7.810;2023-12-20T07:49:05;0.10;;;0.10;;
1615;SDS011;801;47.982;7.810;2023-12-20T07:51:33;0.13;;;0.13;;
1615;SDS011;801;47.982;7.810;2023-12-20T07:54:02;0.20;;;0.20;;
1615;SDS011;801;47.982;7.810;2023-12-20T07:56:30;0.30;;;0.30;;
1615;SDS011;801;47.982;7.810;2023-12-20T07:58:56;0.13;;;0.13;;
1615;SDS011;801;47.982;7.810;2023-12-20T08:01:23;0.10;;;0.10;;
1615;SDS011;801;47.982;7.810;2023-12-20T08:03:49;0.20;;;0.20;;
1615;SDS011;801;47.982;7.810;2023-12-20T08:06:17;0.10;;;0.10;;
1615;SDS011;801;47.982;7.810;2023-12-20T08:08:44;0.10;;;0.10;;
1615;SDS011;801;47.982;7.810;2023-12-20T08:11:11;0.32;;;0.32;;
1615;SDS011;801;47.982;7.810;2023-12-20T08:13:43;0.20;;;0.20;;
1615;SDS011;801;47.982;7.810;2023-12-20T08:16:10;0.10;;;0.10;;
1615;SDS011;801;47.982;7.810;2023-12-20T08:18:38;0.10;;;0.10;;
1615;SDS011;801;47.982;7.810;2023-12-20T08:21:07;0.30;;;0.30;;
1615;SDS011;801;47.982;7.810;2023-12-20T08:23:36;0.10;;;0.10;;
1615;SDS011;801;47.982;7.810;2023-12-20T08:26:07;0.10;;;0.10;;
1615;SDS011;801;47.982;7.810;2023-12-20T08:28:38;6.13;;;0.47;;
1615;SDS011;801;47.982;7.810;2023-12-20T08:31:13;0.10;;;0.10;;
1615;SDS011;801;47.982;7.810;2023-12-20T08:33:49;0.20;;;0.20;;
1615;SDS011;801;47.982;7.810;2023-12-20T08:36:16;0.40;;;0.40;;
1615;SDS011;801;47.982;7.810;2023-12-20T08:38:49;0.13;;;0.13;;
1615;SDS011;801;47.982;7.810;2023-12-20T08:41:20;0.10;;;0.10;;
1615;SDS011;801;47.982;7.810;2023-12-20T08:43:48;0.10;;;0.10;;
1615;SDS011;801;47.982;7.810;2023-12-20T08:46:20;0.20;;;0.20;;
1615;SDS011;801;47.982;7.810;2023-12-20T08:48:52;2.15;;;0.50;;
1615;SDS011;801;47.982;7.810;2023-12-20T08:51:20;0.25;;;0.25;;
1615;SDS011;801;47.982;7.810;2023-12-20T08:53:50;0.17;;;0.17;;
1615;SDS011;801;47.982;7.810;2023-12-20T08:56:22;0.20;;;0.20;;
1615;SDS011;801;47.982;7.810;2023-12-20T08:58:52;0.20;;;0.20;;
1615;SDS011;801;47.982;7.810;2023-12-20T09:01:21;0.10;;;0.10;;
1615;SDS011;801;47.982;7.810;2023-12-20T09:03:48;0.28;;;0.28;;
1615;SDS011;801;47.982;7.810;2023-12-20T09:06:16;0.30;;;0.30;;
1615;SDS011;801;47.982;7.810;2023-12-20T09:08:47;0.30;;;0.30;;
1615;SDS011;801;47.982;7.810;2023-12-20T09:11:17;0.10;;;0.10;;
1615;SDS011;801;47.982;7.810;2023-12-20T09:13:44;0.30;;;0.30;;
1615;SDS011;801;47.982;7.810;2023-12-20T09:16:12;0.30;;;0.30;;
1615;SDS011;801;47.982;7.810;2023-12-20T09:18:41;0.45;;;0.25;;
1615;SDS011;801;47.982;7.810;2023-12-20T09:21:10;0.35;;;0.28;;
1615;SDS011;801;47.982;7.810;2023-12-20T09:23:38;0.10;;;0.10;;
1615;SDS011;801;47.982;7.810;2023-12-20T09:26:09;5.22;;;2.60;;
1615;SDS011;801;47.982;7.810;2023-12-20T09:28:38;1.65;;;1.48;;
1615;SDS011;801;47.982;7.810;2023-12-20T09:31:05;1.20;;;0.85;;
1615;SDS011;801;47.982;7.810;2023-12-20T09:33:32;1.00;;;0.90;;
1615;SDS011;801;47.982;7.810;2023-12-20T09:35:59;0.30;;;0.30;;
1615;SDS011;801;47.982;7.810;2023-12-20T09:38:25;0.35;;;0.32;;
1615;SDS011;801;47.982;7.810;2023-12-20T09:40:52;2.92;;;0.47;;
1615;SDS011;801;47.982;7.810;2023-12-20T09:43:21;1.10;;;0.52;;
1615;SDS011;801;47.982;7.810;2023-12-20T09:45:51;0.93;;;0.73;;
1615;SDS011;801;47.982;7.810;2023-12-20T09:48:19;0.30;;;0.30;;
1615;SDS011;801;47.982;7.810;2023-12-20T09:50:46;0.88;;;0.70;;
1615;SDS011;801;47.982;7.810;2023-12-20T09:53:14;0.15;;;0.15;;
1615;SDS011;801;47.982;7.810;2023-12-20T09:55:42;0.40;;;0.40;;
1615;SDS011;801;47.982;7.810;2023-12-20T09:58:09;0.80;;;0.80;;
1615;SDS011;801;47.982;7.810;2023-12-20T10:00:40;1.17;;;0.80;;
1615;SDS011;801;47.982;7.810;2023-12-20T10:03:06;1.25;;;0.52;;
1615;SDS011;801;47.982;7.810;2023-12-20T10:05:39;0.30;;;0.30;;
1615;SDS011;801;47.982;7.810;2023-12-20T10:08:14;1.38;;;1.05;;
1615;SDS011;801;47.982;7.810;2023-12-20T10:10:43;1.05;;;0.60;;
1615;SDS011;801;47.982;7.810;2023-12-20T10:13:15;0.10;;;0.10;;
1615;SDS011;801;47.982;7.810;2023-12-20T10:15:46;0.38;;;0.38;;
1615;SDS011;801;47.982;7.810;2023-12-20T10:18:32;1.80;;;0.45;;
1615;SDS011;801;47.982;7.810;2023-12-20T10:20:59;0.45;;;0.45;;
1615;SDS011;801;47.982;7.810;2023-12-20T10:23:29;0.15;;;0.15;;
1615;SDS011;801;47.982;7.810;2023-12-20T10:25:59;1.30;;;0.38;;
1615;SDS011;801;47.982;7.810;2023-12-20T10:28:32;2.05;;;1.42;;
1615;SDS011;801;47.982;7.810;2023-12-20T10:31:07;5.95;;;2.85;;
1615;SDS011;801;47.982;7.810;2023-12-20T10:33:37;20.02;;;12.75;;
1615;SDS011;801;47.982;7.810;2023-12-20T10:36:10;20.10;;;11.18;;
1615;SDS011;801;47.982;7.810;2023-12-20T10:38:41;28.08;;;15.75;;
1615;SDS011;801;47.982;7.810;2023-12-20T10:41:23;15.52;;;9.95;;
1615;SDS011;801;47.982;7.810;2023-12-20T10:43:53;7.57;;;5.28;;
1615;SDS011;801;47.982;7.810;2023-12-20T10:46:24;3.17;;;1.77;;
1615;SDS011;801;47.982;7.810;2023-12-20T10:48:57;1.52;;;0.85;;
1615;SDS011;801;47.982;7.810;2023-12-20T10:51:29;3.85;;;0.85;;
1615;SDS011;801;47.982;7.810;2023-12-20T10:54:18;0.82;;;0.47;;
1615;SDS011;801;47.982;7.810;2023-12-20T10:57:04;1.20;;;0.70;;
1615;SDS011;801;47.982;7.810;2023-12-20T10:59:50;8.10;;;1.02;;
1615;SDS011;801;47.982;7.810;2023-12-20T11:02:40;0.50;;;0.50;;
1615;SDS011;801;47.982;7.810;2023-12-20T11:05:31;0.60;;;0.55;;
1615;SDS011;801;47.982;7.810;2023-12-20T11:08:19;0.90;;;0.73;;
1615;SDS011;801;47.982;7.810;2023-12-20T11:11:21;0.40;;;0.35;;
1615;SDS011;801;47.982;7.810;2023-12-20T11:14:03;0.40;;;0.40;;
1615;SDS011;801;47.982;7.810;2023-12-20T11:16:42;0.10;;;0.10;;
1615;SDS011;801;47.982;7.810;2023-12-20T11:19:18;0.40;;;0.40;;
1615;SDS011;801;47.982;7.810;2023-12-20T11:21:53;0.40;;;0.40;;
1615;SDS011;801;47.982;7.810;2023-12-20T11:24:26;0.45;;;0.45;;
1615;SDS011;801;47.982;7.810;2023-12-20T11:27:01;1.02;;;0.98;;
1615;SDS011;801;47.982;7.810;2023-12-20T11:29:31;0.40;;;0.30;;
1615;SDS011;801;47.982;7.810;2023-12-20T11:32:01;0.85;;;0.45;;
1615;SDS011;801;47.982;7.810;2023-12-20T11:34:32;1.02;;;0.98;;
1615;SDS011;801;47.982;7.810;2023-12-20T11:37:02;1.33;;;0.55;;
1615;SDS011;801;47.982;7.810;2023-12-20T11:39:38;1.73;;;0.77;;
1615;SDS011;801;47.982;7.810;2023-12-20T11:42:05;1.27;;;0.90;;
1615;SDS011;801;47.982;7.810;2023-12-20T11:44:33;0.65;;;0.52;;
1615;SDS011;801;47.982;7.810;2023-12-20T11:47:02;2.35;;;1.17;;
1615;SDS011;801;47.982;7.810;2023-12-20T11:49:29;0.20;;;0.20;;
1615;SDS011;801;47.982;7.810;2023-12-20T11:51:57;0.30;;;0.30;;
1615;SDS011;801;47.982;7.810;2023-12-20T11:54:25;0.57;;;0.50;;
1615;SDS011;801;47.982;7.810;2023-12-20T11:56:51;0.30;;;0.30;;
1615;SDS011;801;47.982;7.810;2023-12-20T11:59:18;0.17;;;0.17;;
1615;SDS011;801;47.982;7.810;2023-12-20T12:01:47;0.30;;;0.30;;
1615;SDS011;801;47.982;7.810;2023-12-20T12:04:15;0.55;;;0.50;;
1615;SDS011;801;47.982;7.810;2023-12-20T12:06:50;0.20;;;0.20;;
1615;SDS011;801;47.982;7.810;2023-12-20T12:09:26;4.07;;;1.17;;
1615;SDS011;801;47.982;7.810;2023-12-20T12:12:02;0.57;;;0.57;;
1615;SDS011;801;47.982;7.810;2023-12-20T12:14:33;5.47;;;0.43;;
1615;SDS011;801;47.982;7.810;2023-12-20T12:17:09;0.30;;;0.25;;
1615;SDS011;801;47.982;7.810;2023-12-20T12:19:39;0.20;;;0.20;;
1615;SDS011;801;47.982;7.810;2023-12-20T12:22:13;1.35;;;0.43;;
1615;SDS011;801;47.982;7.810;2023-12-20T12:24:54;2.13;;;0.55;;
1615;SDS011;801;47.982;7.810;2023-12-20T12:27:25;0.60;;;0.35;;
1615;SDS011;801;47.982;7.810;2023-12-20T12:30:01;0.20;;;0.20;;
1615;SDS011;801;47.982;7.810;2023-12-20T12:32:35;0.70;;;0.50;;
1615;SDS011;801;47.982;7.810;2023-12-20T12:35:04;0.17;;;0.17;;
1615;SDS011;801;47.982;7.810;2023-12-20T12:37:41;3.90;;;0.82;;
1615;SDS011;801;47.982;7.810;2023-12-20T12:40:14;0.55;;;0.35;;
1615;SDS011;801;47.982;7.810;2023-12-20T12:42:52;0.20;;;0.20;;
1615;SDS011;801;47.982;7.810;2023-12-20T12:45:26;0.70;;;0.40;;
1615;SDS011;801;47.982;7.810;2023-12-20T12:47:55;0.47;;;0.47;;
1615;SDS011;801;47.982;7.810;2023-12-20T12:50:23;0.60;;;0.50;;
1615;SDS011;801;47.982;7.810;2023-12-20T12:52:56;1.75;;;0.77;;
1615;SDS011;801;47.982;7.810;2023-12-20T12:55:37;0.52;;;0.52;;
1615;SDS011;801;47.982;7.810;2023-12-20T12:58:11;0.10;;;0.10;;
1615;SDS011;801;47.982;7.810;2023-12-20T13:00:44;13.00;;;0.57;;
1615;SDS011;801;47.982;7.810;2023-12-20T13:03:23;0.30;;;0.30;;
1615;SDS011;801;47.982;7.810;2023-12-20T13:05:52;0.20;;;0.20;;
1615;SDS011;801;47.982;7.810;2023-12-20T13:08:23;1.75;;;0.73;;
1615;SDS011;801;47.982;7.810;2023-12-20T13:10:58;1.08;;;0.60;;
1615;SDS011;801;47.982;7.810;2023-12-20T13:13:41;0.80;;;0.20;;
1615;SDS011;801;47.982;7.810;2023-12-20T13:16:08;0.00;;;0.00;;
1615;SDS011;801;47.982;7.810;2023-12-20T13:18:38;0.63;;;0.30;;
1615;SDS011;801;47.982;7.810;2023-12-20T13:21:09;0.10;;;0.10;;
1615;SDS011;801;47.982;7.810;2023-12-20T13:23:37;0.15;;;0.15;;
1615;SDS011;801;47.982;7.810;2023-12-20T13:26:13;1.17;;;0.65;;
1615;SDS011;801;47.982;7.810;2023-12-20T13:28:42;0.85;;;0.52;;
1615;SDS011;801;47.982;7.810;2023-12-20T13:32:40;0.57;;;0.43;;
1615;SDS011;801;47.982;7.810;2023-12-20T13:34:44;0.10;;;0.10;;
1615;SDS011;801;47.982;7.810;2023-12-20T13:37:12;0.10;;;0.10;;
1615;SDS011;801;47.982;7.810;2023-12-20T13:39:50;1.30;;;0.47;;
1615;SDS011;801;47.982;7.810;2023-12-20T13:42:30;1.45;;;0.40;;
1615;SDS011;801;47.982;7.810;2023-12-20T13:45:17;0.10;;;0.10;;
1615;SDS011;801;47.982;7.810;2023-12-20T13:47:47;0.20;;;0.20;;
1615;SDS011;801;47.982;7.810;2023-12-20T13:50:18;0.20;;;0.20;;
1615;SDS011;801;47.982;7.810;2023-12-20T13:52:54;2.47;;;0.55;;
1615;SDS011;801;47.982;7.810;2023-12-20T13:55:32;0.10;;;0.10;;
1615;SDS011;801;47.982;7.810;2023-12-20T14:01:08;0.20;;;0.20;;
1615;SDS011;801;47.982;7.810;2023-12-20T14:03:45;0.20;;;0.20;;
1615;SDS011;801;47.982;7.810;2023-12-20T14:06:17;0.35;;;0.35;;
1615;SDS011;801;47.982;7.810;2023-12-20T14:08:55;1.38;;;0.65;;
1615;SDS011;801;47.982;7.810;2023-12-20T14:11:26;0.40;;;0.40;;
1615;SDS011;801;47.982;7.810;2023-12-20T14:14:25;0.52;;;0.52;;
1615;SDS011;801;47.982;7.810;2023-12-20T14:16:54;0.57;;;0.17;;
1615;SDS011;801;47.982;7.810;2023-12-20T14:19:26;1.23;;;0.70;;
1615;SDS011;801;47.982;7.810;2023-12-20T14:21:54;0.47;;;0.47;;
1615;SDS011;801;47.982;7.810;2023-12-20T14:24:29;0.93;;;0.93;;
1615;SDS011;801;47.982;7.810;2023-12-20T14:27:10;0.63;;;0.63;;
1615;SDS011;801;47.982;7.810;2023-12-20T14:32:40;2.53;;;0.52;;
1615;SDS011;801;47.982;7.810;2023-12-20T14:35:17;0.65;;;0.38;;
1615;SDS011;801;47.982;7.810;2023-12-20T14:37:52;0.30;;;0.10;;
1615;SDS011;801;47.982;7.810;2023-12-20T14:40:24;0.35;;;0.35;;
1615;SDS011;801;47.982;7.810;2023-12-20T14:42:56;0.20;;;0.20;;
1615;SDS011;801;47.982;7.810;2023-12-20T14:45:24;0.22;;;0.20;;
1615;SDS011;801;47.982;7.810;2023-12-20T14:47:52;0.10;;;0.10;;
1615;SDS011;801;47.982;7.810;2023-12-20T14:50:26;0.10;;;0.10;;
1615;SDS011;801;47.982;7.810;2023-12-20T14:52:56;0.50;;;0.50;;
1615;SDS011;801;47.982;7.810;2023-12-20T14:55:24;1.10;;;0.30;;
1615;SDS011;801;47.982;7.810;2023-12-20T14:57:52;5.18;;;0.70;;
1615;SDS011;801;47.982;7.810;2023-12-20T15:00:22;0.20;;;0.20;;
1615;SDS011;801;47.982;7.810;2023-12-20T15:02:50;0.28;;;0.25;;
1615;SDS011;801;47.982;7.810;2023-12-20T15:05:19;0.10;;;0.10;;
1615;SDS011;801;47.982;7.810;2023-12-20T15:07:45;0.55;;;0.55;;
1615;SDS011;801;47.982;7.810;2023-12-20T15:10:13;5.72;;;0.35;;
1615;SDS011;801;47.982;7.810;2023-12-20T15:12:42;0.88;;;0.63;;
1615;SDS011;801;47.982;7.810;2023-12-20T15:15:10;0.20;;;0.20;;
1615;SDS011;801;47.982;7.810;2023-12-20T15:17:36;0.10;;;0.10;;
1615;SDS011;801;47.982;7.810;2023-12-20T15:20:09;3.03;;;0.57;;
1615;SDS011;801;47.982;7.810;2023-12-20T15:22:36;0.10;;;0.10;;
1615;SDS011;801;47.982;7.810;2023-12-20T15:25:05;0.65;;;0.30;;
1615;SDS011;801;47.982;7.810;2023-12-20T15:27:33;1.10;;;0.40;;
1615;SDS011;801;47.982;7.810;2023-12-20T15:30:00;1.90;;;0.43;;
1615;SDS011;801;47.982;7.810;2023-12-20T15:32:27;0.10;;;0.10;;
1615;SDS011;801;47.982;7.810;2023-12-20T15:34:55;0.10;;;0.10;;
1615;SDS011;801;47.982;7.810;2023-12-20T15:37:24;0.10;;;0.10;;
1615;SDS011;801;47.982;7.810;2023-12-20T15:39:51;1.10;;;0.95;;
1615;SDS011;801;47.982;7.810;2023-12-20T15:42:18;0.10;;;0.10;;
1615;SDS011;801;47.982;7.810;2023-12-20T15:44:44;0.22;;;0.22;;
1615;SDS011;801;47.982;7.810;2023-12-20T15:47:11;0.70;;;0.70;;
1615;SDS011;801;47.982;7.810;2023-12-20T15:49:37;0.20;;;0.20;;